createdAt,value
2018-07-04T00:01:28.755Z,1.63
2018-07-04T00:04:07.579Z,1.43
2018-07-04T00:06:46.473Z,1.70
2018-07-04T00:09:19.656Z,1.50
2018-07-04T00:11:53.030Z,1.40
2018-07-04T00:14:26.173Z,1.43
2018-07-04T00:16:59.218Z,1.87
2018-07-04T00:19:38.078Z,1.70
2018-07-04T00:22:11.258Z,1.67
2018-07-04T00:24:44.365Z,1.77
2018-07-04T00:27:23.272Z,1.83
2018-07-04T00:29:56.400Z,1.37
2018-07-04T00:32:29.449Z,1.63
2018-07-04T00:35:02.614Z,1.70
2018-07-04T00:37:35.799Z,1.57
2018-07-04T00:40:14.743Z,1.77
2018-07-04T00:42:47.824Z,2.10
2018-07-04T00:45:26.794Z,1.90
2018-07-04T00:48:05.770Z,1.90
2018-07-04T00:50:38.911Z,1.60
2018-07-04T00:53:12.010Z,1.70
2018-07-04T00:55:50.778Z,1.77
2018-07-04T00:58:23.963Z,1.50
2018-07-04T01:00:57.091Z,1.70
2018-07-04T01:03:35.958Z,1.60
2018-07-04T01:06:09.058Z,1.60
2018-07-04T01:08:47.927Z,1.50
2018-07-04T01:11:21.071Z,1.70
2018-07-04T01:13:59.952Z,1.70
2018-07-04T01:16:33.137Z,1.57
2018-07-04T01:19:06.274Z,1.63
2018-07-04T01:21:45.663Z,1.80
2018-07-04T01:24:18.763Z,1.43
2018-07-04T01:26:51.942Z,1.50
2018-07-04T01:29:25.370Z,1.83
2018-07-04T01:32:04.298Z,1.47
2018-07-04T01:34:43.035Z,1.70
2018-07-04T01:37:16.182Z,1.60
2018-07-04T01:39:49.368Z,1.80
2018-07-04T01:42:22.389Z,1.70
2018-07-04T01:44:55.527Z,1.47
2018-07-04T01:47:34.395Z,1.70
2018-07-04T01:50:07.571Z,1.40
2018-07-04T01:52:46.532Z,1.43
2018-07-04T01:55:19.739Z,1.40
2018-07-04T01:57:52.858Z,1.80
2018-07-04T02:00:25.891Z,1.60
2018-07-04T02:02:58.937Z,1.80
2018-07-04T02:05:32.111Z,1.80
2018-07-04T02:08:10.951Z,1.50
2018-07-04T02:10:44.115Z,1.80
2018-07-04T02:13:22.951Z,1.50
2018-07-04T02:15:56.109Z,1.63
2018-07-04T02:18:35.039Z,1.67
2018-07-04T02:21:08.157Z,1.87
2018-07-04T02:23:41.294Z,1.60
2018-07-04T02:26:20.115Z,1.70
2018-07-04T02:28:59.008Z,1.70
2018-07-04T02:31:32.108Z,1.73
2018-07-04T02:34:05.240Z,1.70
2018-07-04T02:36:44.184Z,1.67
2018-07-04T02:39:17.274Z,1.97
2018-07-04T02:41:50.506Z,1.53
2018-07-04T02:44:23.669Z,1.63
2018-07-04T02:46:56.669Z,1.87
2018-07-04T02:49:36.395Z,1.77
2018-07-04T02:52:09.660Z,1.93
2018-07-04T02:54:42.835Z,1.90
2018-07-04T02:57:16.159Z,1.90
2018-07-04T02:59:55.031Z,1.60
2018-07-04T03:02:33.984Z,1.60
2018-07-04T03:05:12.800Z,1.40
2018-07-04T03:07:46.003Z,2.07
2018-07-04T03:10:19.057Z,1.50
2018-07-04T03:12:52.277Z,1.43
2018-07-04T03:15:25.399Z,1.77
2018-07-04T03:17:58.534Z,2.03
2018-07-04T03:20:31.518Z,2.00
2018-07-04T03:23:04.664Z,2.40
2018-07-04T03:25:37.838Z,2.13
2018-07-04T03:28:10.886Z,1.80
2018-07-04T03:30:49.683Z,2.20
2018-07-04T03:33:22.848Z,1.70
2018-07-04T03:35:56.028Z,2.10
2018-07-04T03:38:29.046Z,1.90
2018-07-04T03:41:02.068Z,1.80
2018-07-04T03:43:40.956Z,1.77
2018-07-04T03:46:14.126Z,1.77
2018-07-04T03:48:47.237Z,1.80
2018-07-04T03:51:26.163Z,1.90
2018-07-04T03:54:05.148Z,1.50
2018-07-04T03:56:43.975Z,1.90
2018-07-04T03:59:17.135Z,1.90
2018-07-04T04:01:50.410Z,1.73
2018-07-04T04:04:23.569Z,1.90
2018-07-04T04:06:56.788Z,1.97
2018-07-04T04:09:30.118Z,2.20
2018-07-04T04:12:03.330Z,2.03
2018-07-04T04:14:36.495Z,2.00
2018-07-04T04:17:09.494Z,1.87
2018-07-04T04:19:48.491Z,1.80
2018-07-04T04:22:27.439Z,1.77
2018-07-04T04:25:00.559Z,2.60
2018-07-04T04:27:39.372Z,2.07
2018-07-04T04:30:12.683Z,2.07
2018-07-04T04:32:51.570Z,2.10
2018-07-04T04:35:24.690Z,2.00
2018-07-04T04:37:57.680Z,2.12
2018-07-04T04:40:30.836Z,2.20
2018-07-04T04:43:09.816Z,2.02
2018-07-04T04:45:48.795Z,2.08
2018-07-04T04:48:27.639Z,1.80
2018-07-04T04:51:00.844Z,1.77
2018-07-04T04:53:33.963Z,1.98
2018-07-04T04:56:07.088Z,1.95
2018-07-04T04:58:40.101Z,2.00
2018-07-04T05:01:13.071Z,1.80
2018-07-04T05:03:46.258Z,1.90
2018-07-04T05:06:19.522Z,1.65
2018-07-04T05:08:52.683Z,1.65
2018-07-04T05:11:25.868Z,1.80
2018-07-04T05:13:59.011Z,1.62
2018-07-04T05:16:32.322Z,2.08
2018-07-04T05:19:05.570Z,2.00
2018-07-04T05:21:38.700Z,1.80
2018-07-04T05:24:12.029Z,1.80
2018-07-04T05:26:45.170Z,2.10
2018-07-04T05:29:18.178Z,2.50
2018-07-04T05:31:51.790Z,1.92
2018-07-04T05:34:24.815Z,2.20
2018-07-04T05:36:57.904Z,2.08
2018-07-04T05:39:30.947Z,2.12
2018-07-04T05:42:04.075Z,2.05
2018-07-04T05:44:37.092Z,2.12
2018-07-04T05:47:10.198Z,2.27
2018-07-04T05:49:43.297Z,2.30
2018-07-04T05:52:16.421Z,1.98
2018-07-04T05:54:49.758Z,1.75
2018-07-04T05:57:22.875Z,2.20
2018-07-04T05:59:56.055Z,1.80
2018-07-04T06:02:29.187Z,1.35
2018-07-04T06:05:07.974Z,1.40
2018-07-04T06:07:40.954Z,1.45
2018-07-04T06:10:13.950Z,1.82
2018-07-04T06:12:47.105Z,1.77
2018-07-04T06:15:20.220Z,1.80
2018-07-04T06:17:53.528Z,1.75
2018-07-04T06:20:26.665Z,1.87
2018-07-04T06:22:59.868Z,1.42
2018-07-04T06:25:38.771Z,1.60
2018-07-04T06:28:11.908Z,1.70
2018-07-04T06:30:45.179Z,1.82
2018-07-04T06:33:18.204Z,1.90
2018-07-04T06:35:51.326Z,1.87
2018-07-04T06:38:18.319Z,2.00
2018-07-04T06:40:45.287Z,1.95
2018-07-04T06:43:12.259Z,2.05
2018-07-04T06:45:39.359Z,2.12
2018-07-04T06:48:06.351Z,1.77
2018-07-04T06:50:33.427Z,1.90
2018-07-04T06:53:00.424Z,2.00
2018-07-04T06:55:27.395Z,1.75
2018-07-04T06:57:54.403Z,2.05
2018-07-04T07:00:21.371Z,2.27
2018-07-04T07:02:54.774Z,2.00
2018-07-04T07:05:27.771Z,1.70
2018-07-04T07:08:00.882Z,1.65
2018-07-04T07:10:34.086Z,1.90
2018-07-04T07:13:07.224Z,1.30
2018-07-04T07:15:40.195Z,1.30
2018-07-04T07:18:14.078Z,1.72
2018-07-04T07:20:47.269Z,1.80
2018-07-04T07:23:20.479Z,1.40
2018-07-04T07:25:53.594Z,1.27
2018-07-04T07:28:26.586Z,1.47
2018-07-04T07:30:59.715Z,1.52
2018-07-04T07:33:32.847Z,1.30
2018-07-04T07:36:06.065Z,1.45
2018-07-04T07:38:39.065Z,1.40
2018-07-04T07:41:12.150Z,1.70
2018-07-04T07:43:45.264Z,1.30
2018-07-04T07:46:18.399Z,1.47
2018-07-04T07:48:51.669Z,1.30
2018-07-04T07:51:24.609Z,1.32
2018-07-04T07:53:57.803Z,1.30
2018-07-04T07:56:36.923Z,1.22
2018-07-04T07:59:10.035Z,1.40
2018-07-04T08:01:43.215Z,1.47
2018-07-04T08:04:16.338Z,1.90
2018-07-04T08:06:55.100Z,1.90
2018-07-04T08:09:28.367Z,1.42
2018-07-04T08:12:01.410Z,1.75
2018-07-04T08:14:34.627Z,1.25
2018-07-04T08:17:07.838Z,1.30
2018-07-04T08:19:40.959Z,1.70
2018-07-04T08:22:14.135Z,1.47
2018-07-04T08:24:47.607Z,1.85
2018-07-04T08:27:20.711Z,1.80
2018-07-04T08:29:53.855Z,1.60
2018-07-04T08:32:26.922Z,1.77
2018-07-04T08:35:00.061Z,1.77
2018-07-04T08:37:33.768Z,1.67
2018-07-04T08:40:07.138Z,2.45
2018-07-04T08:42:40.290Z,1.70
2018-07-04T08:45:13.372Z,1.90
2018-07-04T08:47:46.567Z,2.00
2018-07-04T08:50:19.787Z,1.30
2018-07-04T08:52:52.836Z,1.65
2018-07-04T08:55:25.854Z,1.50
2018-07-04T08:57:59.059Z,1.42
2018-07-04T09:00:32.210Z,1.90
2018-07-04T09:03:05.638Z,1.72
2018-07-04T09:05:44.579Z,1.15
2018-07-04T09:08:17.620Z,1.67
2018-07-04T09:10:56.560Z,1.52
2018-07-04T09:13:30.156Z,1.90
2018-07-04T09:16:04.089Z,1.65
2018-07-04T09:18:37.770Z,1.60
2018-07-04T09:21:10.965Z,1.80
2018-07-04T09:26:26.466Z,1.70
2018-07-04T09:28:59.630Z,1.35
2018-07-04T09:31:32.899Z,1.77
2018-07-04T09:34:06.119Z,1.55
2018-07-04T09:36:45.058Z,1.40
2018-07-04T09:39:18.035Z,1.42
2018-07-04T09:41:51.160Z,1.50
2018-07-04T09:44:24.322Z,1.67
2018-07-04T09:46:57.399Z,2.20
2018-07-04T09:49:30.757Z,2.40
2018-07-04T09:52:03.781Z,2.58
2018-07-04T09:54:36.768Z,2.30
2018-07-04T09:57:15.695Z,2.40
2018-07-04T09:59:48.838Z,2.87
2018-07-04T10:02:27.745Z,2.70
2018-07-04T10:05:00.954Z,1.70
2018-07-04T10:07:34.213Z,1.82
2018-07-04T10:10:13.178Z,2.35
2018-07-04T10:12:52.024Z,2.15
2018-07-04T10:15:25.632Z,2.10
2018-07-04T10:17:59.132Z,1.62
2018-07-04T10:20:37.979Z,1.72
2018-07-04T10:23:11.037Z,1.80
2018-07-04T10:25:44.124Z,2.08
2018-07-04T10:28:17.219Z,2.02
2018-07-04T10:30:50.516Z,1.52
2018-07-04T10:33:23.792Z,1.62
2018-07-04T10:36:02.960Z,1.60
2018-07-04T10:38:36.067Z,1.25
2018-07-04T10:41:09.358Z,1.50
2018-07-04T10:43:42.527Z,2.02
2018-07-04T10:46:21.734Z,1.50
2018-07-04T10:48:54.897Z,1.37
2018-07-04T10:51:28.052Z,1.80
2018-07-04T10:54:01.206Z,1.80
2018-07-04T10:56:34.717Z,2.08
2018-07-04T10:59:08.150Z,1.87
2018-07-04T11:01:41.360Z,1.73
2018-07-04T11:04:14.575Z,2.10
2018-07-04T11:06:47.840Z,1.60
2018-07-04T11:09:26.780Z,1.87
2018-07-04T11:12:05.600Z,2.00
2018-07-04T11:14:38.671Z,2.00
2018-07-04T11:17:17.579Z,1.77
2018-07-04T11:19:50.898Z,1.80
2018-07-04T11:22:23.951Z,1.90
2018-07-04T11:24:57.230Z,1.93
2018-07-04T11:27:36.143Z,1.70
2018-07-04T11:30:10.057Z,2.00
2018-07-04T11:32:43.729Z,1.90
2018-07-04T11:35:22.601Z,1.70
2018-07-04T11:37:55.823Z,1.90
2018-07-04T11:40:34.776Z,1.80
2018-07-04T11:43:07.810Z,1.73
2018-07-04T11:45:40.982Z,1.53
2018-07-04T11:48:07.556Z,1.87
2018-07-04T11:50:34.579Z,1.50
2018-07-04T11:53:01.152Z,1.80
2018-07-04T11:55:28.120Z,1.80
2018-07-04T11:57:55.090Z,1.80
2018-07-04T12:00:22.179Z,1.70
2018-07-04T12:02:49.364Z,1.93
2018-07-04T12:05:23.752Z,1.90
2018-07-04T12:07:51.523Z,1.47
2018-07-04T12:10:18.971Z,2.27
2018-07-04T12:12:45.954Z,2.10
2018-07-04T12:15:12.511Z,2.02
2018-07-04T12:17:39.507Z,2.50
2018-07-04T12:20:06.491Z,2.67
2018-07-04T12:22:33.516Z,3.05
2018-07-04T12:25:00.500Z,2.30
2018-07-04T12:27:27.488Z,2.00
2018-07-04T12:29:54.480Z,2.02
2018-07-04T12:32:21.559Z,2.10
2018-07-04T12:34:48.546Z,1.92
2018-07-04T12:37:15.543Z,2.00
2018-07-04T12:39:42.535Z,1.90
2018-07-04T12:42:09.508Z,1.75
2018-07-04T12:44:36.490Z,2.17
2018-07-04T12:47:03.505Z,1.47
2018-07-04T12:49:30.489Z,2.12
2018-07-04T12:51:57.477Z,2.10
2018-07-04T12:54:29.982Z,1.98
2018-07-04T12:57:03.153Z,1.85
2018-07-04T12:59:36.339Z,1.77
2018-07-04T13:02:09.415Z,1.80
2018-07-04T13:04:42.867Z,1.95
2018-07-04T13:07:15.918Z,1.62
2018-07-04T13:09:49.234Z,1.72
2018-07-04T13:12:23.214Z,1.77
2018-07-04T13:14:56.567Z,2.10
2018-07-04T13:17:29.828Z,1.60
2018-07-04T13:20:03.187Z,1.32
2018-07-04T13:22:36.189Z,1.42
2018-07-04T13:25:09.277Z,1.70
2018-07-04T13:27:42.337Z,1.47
2018-07-04T13:30:15.550Z,1.30
2018-07-04T13:32:48.570Z,1.92
2018-07-04T13:35:21.961Z,1.50
2018-07-04T13:37:55.182Z,1.55
2018-07-04T13:40:33.969Z,1.80
2018-07-04T13:43:07.279Z,1.92
2018-07-04T13:45:40.285Z,1.50
2018-07-04T13:48:13.416Z,1.80
2018-07-04T13:50:46.614Z,1.60
2018-07-04T13:53:19.815Z,1.55
2018-07-04T13:55:52.984Z,1.30
2018-07-04T13:58:26.217Z,1.40
2018-07-04T14:01:05.193Z,1.40
2018-07-04T14:03:38.599Z,1.50
2018-07-04T14:06:11.950Z,1.32
2018-07-04T14:08:45.080Z,1.27
2018-07-04T14:11:18.119Z,1.40
2018-07-04T14:13:51.471Z,1.50
2018-07-04T14:16:24.743Z,1.42
2018-07-04T14:19:03.566Z,1.30
2018-07-04T14:21:36.868Z,1.57
2018-07-04T14:24:09.914Z,1.30
2018-07-04T14:26:43.092Z,1.52
2018-07-04T14:29:16.247Z,1.30
2018-07-04T14:31:49.274Z,1.67
2018-07-04T14:34:22.449Z,1.50
2018-07-04T14:36:55.776Z,1.37
2018-07-04T14:39:28.974Z,1.40
2018-07-04T14:42:02.166Z,1.37
2018-07-04T14:44:35.502Z,1.45
2018-07-04T14:47:08.619Z,1.30
2018-07-04T14:49:41.860Z,1.40
2018-07-04T14:52:20.871Z,1.57
2018-07-04T14:54:54.071Z,1.45
2018-07-04T14:57:27.472Z,1.60
2018-07-04T15:00:00.699Z,1.60
2018-07-04T15:02:34.107Z,1.65
2018-07-04T15:05:07.319Z,1.37
2018-07-04T15:07:46.399Z,1.35
2018-07-04T15:10:19.649Z,1.70
2018-07-04T15:12:58.878Z,1.82
2018-07-04T15:15:32.298Z,1.70
2018-07-04T15:18:05.553Z,1.60
2018-07-04T15:20:38.638Z,1.75
2018-07-04T15:23:11.642Z,1.82
2018-07-04T15:25:44.754Z,1.77
2018-07-04T15:28:17.767Z,2.20
2018-07-04T15:30:51.015Z,1.65
2018-07-04T15:33:24.146Z,1.30
2018-07-04T15:35:57.155Z,1.52
2018-07-04T15:38:30.146Z,1.45
2018-07-04T15:41:03.258Z,1.80
2018-07-04T15:43:42.196Z,1.77
2018-07-04T15:46:15.346Z,1.80
2018-07-04T15:48:48.366Z,2.02
2018-07-04T15:51:22.710Z,1.67
2018-07-04T15:53:55.819Z,1.73
2018-07-04T15:56:28.963Z,1.43
2018-07-04T15:59:02.123Z,1.42
2018-07-04T16:01:35.126Z,1.30
2018-07-04T16:04:14.083Z,1.40
2018-07-04T16:06:53.099Z,1.40
2018-07-04T16:09:26.195Z,1.47
2018-07-04T16:11:59.305Z,1.60
2018-07-04T16:14:32.455Z,1.42
2018-07-04T16:17:05.488Z,1.40
2018-07-04T16:19:38.519Z,1.50
2018-07-04T16:22:11.689Z,6.45
2018-07-04T16:24:44.823Z,50.40
2018-07-04T16:27:17.959Z,28.73
2018-07-04T16:29:56.735Z,45.88
2018-07-04T16:32:29.934Z,57.33
2018-07-04T16:35:08.771Z,54.13
2018-07-04T16:37:41.919Z,33.23
2018-07-04T16:40:20.803Z,23.77
2018-07-04T16:42:54.013Z,19.98
2018-07-04T16:45:27.119Z,8.63
2018-07-04T16:48:00.275Z,4.17
2018-07-04T16:50:33.400Z,2.42
2018-07-04T16:53:06.527Z,2.27
2018-07-04T16:55:39.698Z,1.72
2018-07-04T16:58:12.863Z,1.50
2018-07-04T17:00:45.992Z,1.72
2018-07-04T17:03:19.167Z,1.52
2018-07-04T17:05:52.228Z,1.55
2018-07-04T17:08:25.434Z,1.40
2018-07-04T17:10:58.467Z,1.50
2018-07-04T17:13:31.462Z,1.60
2018-07-04T17:16:04.695Z,1.52
2018-07-04T17:18:37.823Z,1.45
2018-07-04T17:21:10.862Z,1.50
2018-07-04T17:23:43.991Z,1.30
2018-07-04T17:26:16.992Z,1.40
2018-07-04T17:28:50.166Z,1.25
2018-07-04T17:31:29.126Z,1.40
2018-07-04T17:34:02.311Z,1.20
2018-07-04T17:36:35.296Z,1.67
2018-07-04T17:39:08.416Z,1.50
2018-07-04T17:41:41.559Z,1.50
2018-07-04T17:44:14.574Z,1.57
2018-07-04T17:46:47.781Z,1.50
2018-07-04T17:49:20.901Z,2.05
2018-07-04T17:51:54.071Z,3.40
2018-07-04T17:54:27.236Z,4.97
2018-07-04T17:57:00.394Z,3.00
2018-07-04T17:59:33.458Z,2.17
2018-07-04T18:02:06.671Z,1.80
2018-07-04T18:04:39.807Z,1.87
2018-07-04T18:07:12.942Z,1.93
2018-07-04T18:09:46.084Z,2.10
2018-07-04T18:12:19.341Z,2.70
2018-07-04T18:14:52.507Z,4.83
2018-07-04T18:17:25.604Z,3.83
2018-07-04T18:19:58.603Z,2.67
2018-07-04T18:22:31.814Z,2.37
2018-07-04T18:25:04.912Z,1.77
2018-07-04T18:27:37.915Z,1.90
2018-07-04T18:30:16.790Z,2.10
2018-07-04T18:32:49.813Z,1.97
2018-07-04T18:35:22.892Z,2.30
2018-07-04T18:37:56.110Z,2.40
2018-07-04T18:40:29.214Z,1.90
2018-07-04T18:43:02.366Z,2.20
2018-07-04T18:45:35.528Z,2.53
2018-07-04T18:48:08.821Z,2.03
2018-07-04T18:50:42.262Z,2.23
2018-07-04T18:53:15.352Z,2.20
2018-07-04T18:55:48.371Z,2.50
2018-07-04T18:58:21.568Z,2.17
2018-07-04T19:00:54.684Z,2.60
2018-07-04T19:03:27.753Z,2.20
2018-07-04T19:06:00.905Z,3.03
2018-07-04T19:08:33.979Z,2.70
2018-07-04T19:11:07.058Z,2.50
2018-07-04T19:13:40.288Z,2.10
2018-07-04T19:16:13.285Z,2.47
2018-07-04T19:18:52.248Z,1.77
2018-07-04T19:21:25.402Z,2.00
2018-07-04T19:24:04.351Z,2.90
2018-07-04T19:26:37.495Z,2.77
2018-07-04T19:29:16.325Z,2.30
2018-07-04T19:31:49.515Z,1.90
2018-07-04T19:34:22.658Z,2.20
2018-07-04T19:36:55.728Z,2.33
2018-07-04T19:39:28.867Z,2.20
2018-07-04T19:42:01.921Z,2.47
2018-07-04T19:44:35.135Z,2.20
2018-07-04T19:47:08.205Z,2.00
2018-07-04T19:49:47.224Z,1.90
2018-07-04T19:52:26.114Z,1.90
2018-07-04T19:54:59.659Z,2.10
2018-07-04T19:57:32.680Z,1.93
2018-07-04T20:00:05.715Z,2.30
2018-07-04T20:02:44.690Z,2.00
2018-07-04T20:05:17.942Z,1.97
2018-07-04T20:07:56.727Z,1.90
2018-07-04T20:10:29.857Z,1.53
2018-07-04T20:13:03.164Z,1.70
2018-07-04T20:15:36.162Z,1.90
2018-07-04T20:18:09.262Z,1.80
2018-07-04T20:20:42.457Z,1.70
2018-07-04T20:23:21.675Z,2.23
2018-07-04T20:25:54.755Z,2.17
2018-07-04T20:28:27.916Z,2.13
2018-07-04T20:31:01.183Z,2.00
2018-07-04T20:33:34.249Z,2.13
2018-07-04T20:36:07.542Z,2.23
2018-07-04T20:38:40.819Z,2.47
2018-07-04T20:41:13.919Z,2.65
2018-07-04T20:43:47.125Z,2.37
2018-07-04T20:46:20.230Z,2.20
2018-07-04T20:48:53.349Z,2.23
2018-07-04T20:51:26.540Z,1.90
2018-07-04T20:53:59.802Z,1.70
2018-07-04T20:56:32.815Z,1.90
2018-07-04T20:59:05.954Z,1.90
2018-07-04T21:01:44.707Z,2.00
2018-07-04T21:04:17.852Z,1.57
2018-07-04T21:06:51.143Z,2.07
2018-07-04T21:09:24.198Z,1.73
2018-07-04T21:11:57.303Z,2.10
2018-07-04T21:14:30.501Z,1.77
2018-07-04T21:17:03.548Z,1.70
2018-07-04T21:19:36.687Z,1.83
2018-07-04T21:22:09.802Z,2.13
2018-07-04T21:24:42.947Z,1.77
2018-07-04T21:27:16.123Z,1.90
2018-07-04T21:29:49.374Z,2.07
2018-07-04T21:32:22.376Z,1.93
2018-07-04T21:34:55.446Z,2.23
2018-07-04T21:37:28.622Z,1.97
2018-07-04T21:40:07.391Z,1.70
2018-07-04T21:42:40.547Z,1.90
2018-07-04T21:45:13.537Z,2.03
2018-07-04T21:47:46.734Z,1.80
2018-07-04T21:50:25.725Z,2.20
2018-07-04T21:52:58.832Z,2.10
2018-07-04T21:55:31.842Z,1.83
2018-07-04T21:58:05.348Z,2.20
2018-07-04T22:00:44.243Z,2.30
2018-07-04T22:03:17.461Z,2.50
2018-07-04T22:05:50.639Z,2.80
2018-07-04T22:08:29.496Z,2.03
2018-07-04T22:11:03.030Z,2.03
2018-07-04T22:13:36.185Z,2.00
2018-07-04T22:16:09.226Z,1.90
2018-07-04T22:18:42.283Z,1.90
2018-07-04T22:21:21.155Z,2.00
2018-07-04T22:24:00.175Z,2.30
2018-07-04T22:26:33.252Z,2.03
2018-07-04T22:29:06.577Z,2.13
2018-07-04T22:31:39.629Z,2.30
2018-07-04T22:35:15.494Z,2.10
2018-07-04T22:37:54.376Z,1.73
2018-07-04T22:40:33.307Z,2.07
2018-07-04T22:43:06.462Z,1.97
2018-07-04T22:45:39.529Z,2.07
2018-07-04T22:48:18.319Z,2.20
2018-07-04T22:50:57.455Z,2.33
2018-07-04T22:53:30.727Z,2.37
2018-07-04T22:56:03.861Z,2.30
2018-07-04T22:58:37.219Z,2.20
2018-07-04T23:01:10.239Z,2.20
2018-07-04T23:03:43.370Z,2.33
2018-07-04T23:06:16.650Z,2.10
2018-07-04T23:08:49.892Z,2.43
2018-07-04T23:11:22.998Z,1.83
2018-07-04T23:14:01.800Z,2.00
2018-07-04T23:16:36.055Z,2.50
2018-07-04T23:19:09.454Z,2.10
2018-07-04T23:21:42.493Z,2.23
2018-07-04T23:24:15.547Z,2.57
2018-07-04T23:26:48.646Z,2.80
2018-07-04T23:29:21.728Z,2.53
2018-07-04T23:31:54.918Z,2.70
2018-07-04T23:34:27.972Z,2.53
2018-07-04T23:37:01.130Z,2.40
2018-07-04T23:39:40.178Z,2.10
2018-07-04T23:42:19.055Z,2.60
2018-07-04T23:44:52.543Z,2.30
2018-07-04T23:47:26.040Z,2.80
2018-07-04T23:49:59.110Z,2.97
2018-07-04T23:52:32.435Z,2.80
2018-07-04T23:55:11.354Z,2.60
2018-07-04T23:57:44.419Z,2.73
